sensor_id;sensor_type;location;lat;lon;timestamp;temperature;humidity
29281;DHT22;25048;49.590;11.026;2024-01-11T00:00:13;-8.10;99.90
29281;DHT22;25048;49.590;11.026;2024-01-11T00:02:40;-8.10;99.90
29281;DHT22;25048;49.590;11.026;2024-01-11T00:05:09;-8.10;99.90
29281;DHT22;25048;49.590;11.026;2024-01-11T00:07:37;-8.20;99.90
29281;DHT22;25048;49.590;11.026;2024-01-11T00:10:04;-8.20;99.90
29281;DHT22;25048;49.590;11.026;2024-01-11T00:12:32;-8.20;99.90
29281;DHT22;25048;49.590;11.026;2024-01-11T00:14:59;-8.20;99.90
29281;DHT22;25048;49.590;11.026;2024-01-11T00:17:27;-8.20;99.90
29281;DHT22;25048;49.590;11.026;2024-01-11T00:19:55;-8.20;99.90
29281;DHT22;25048;49.590;11.026;2024-01-11T00:22:22;-8.30;99.90
29281;DHT22;25048;49.590;11.026;2024-01-11T00:24:50;-8.30;99.90
29281;DHT22;25048;49.590;11.026;2024-01-11T00:27:17;-8.30;99.90
29281;DHT22;25048;49.590;11.026;2024-01-11T00:29:45;-8.30;99.90
29281;DHT22;25048;49.590;11.026;2024-01-11T00:32:12;-8.30;99.90
29281;DHT22;25048;49.590;11.026;2024-01-11T00:34:40;-8.40;99.90
29281;DHT22;25048;49.590;11.026;2024-01-11T00:37:07;-8.40;99.90
29281;DHT22;25048;49.590;11.026;2024-01-11T00:39:35;-8.40;99.90
29281;DHT22;25048;49.590;11.026;2024-01-11T00:42:02;-8.40;99.90
29281;DHT22;25048;49.590;11.026;2024-01-11T00:44:30;-8.40;99.90
29281;DHT22;25048;49.590;11.026;2024-01-11T00:46:57;-8.50;99.90
29281;DHT22;25048;49.590;11.026;2024-01-11T00:49:25;-8.50;99.90
29281;DHT22;25048;49.590;11.026;2024-01-11T00:51:52;-8.50;99.90
29281;DHT22;25048;49.590;11.026;2024-01-11T00:54:20;-8.50;99.90
29281;DHT22;25048;49.590;11.026;2024-01-11T00:56:48;-8.50;99.90
29281;DHT22;25048;49.590;11.026;2024-01-11T00:59:15;-8.50;99.90
29281;DHT22;25048;49.590;11.026;2024-01-11T01:01:49;-8.50;99.90
29281;DHT22;25048;49.590;11.026;2024-01-11T01:04:17;-8.50;99.90
29281;DHT22;25048;49.590;11.026;2024-01-11T01:06:44;-8.50;99.90
29281;DHT22;25048;49.590;11.026;2024-01-11T01:09:12;-8.50;99.90
29281;DHT22;25048;49.590;11.026;2024-01-11T01:11:40;-8.60;99.90
29281;DHT22;25048;49.590;11.026;2024-01-11T01:14:07;-8.60;99.90
29281;DHT22;25048;49.590;11.026;2024-01-11T01:16:35;-8.60;99.90
29281;DHT22;25048;49.590;11.026;2024-01-11T01:19:02;-8.60;99.90
29281;DHT22;25048;49.590;11.026;2024-01-11T01:21:30;-8.60;99.90
29281;DHT22;25048;49.590;11.026;2024-01-11T01:23:57;-8.60;99.90
29281;DHT22;25048;49.590;11.026;2024-01-11T01:26:25;-8.70;99.90
29281;DHT22;25048;49.590;11.026;2024-01-11T01:28:52;-8.70;99.90
29281;DHT22;25048;49.590;11.026;2024-01-11T01:31:21;-8.70;99.90
29281;DHT22;25048;49.590;11.026;2024-01-11T01:33:54;-8.70;99.90
29281;DHT22;25048;49.590;11.026;2024-01-11T01:36:22;-8.80;99.90
29281;DHT22;25048;49.590;11.026;2024-01-11T01:38:49;-8.80;99.90
29281;DHT22;25048;49.590;11.026;2024-01-11T01:41:17;-8.80;99.90
29281;DHT22;25048;49.590;11.026;2024-01-11T01:43:45;-8.80;99.90
29281;DHT22;25048;49.590;11.026;2024-01-11T01:46:14;-8.80;99.90
29281;DHT22;25048;49.590;11.026;2024-01-11T01:48:43;-8.80;99.90
29281;DHT22;25048;49.590;11.026;2024-01-11T01:51:11;-8.90;99.90
29281;DHT22;25048;49.590;11.026;2024-01-11T01:53:38;-8.90;99.90
29281;DHT22;25048;49.590;11.026;2024-01-11T01:56:08;-8.90;99.90
29281;DHT22;25048;49.590;11.026;2024-01-11T01:58:36;-8.90;99.90
29281;DHT22;25048;49.590;11.026;2024-01-11T02:01:04;-8.90;99.90
29281;DHT22;25048;49.590;11.026;2024-01-11T02:03:32;-8.90;99.90
29281;DHT22;25048;49.590;11.026;2024-01-11T02:06:02;-8.90;99.90
29281;DHT22;25048;49.590;11.026;2024-01-11T02:08:30;-8.90;99.90
29281;DHT22;25048;49.590;11.026;2024-01-11T02:11:00;-8.90;99.90
29281;DHT22;25048;49.590;11.026;2024-01-11T02:13:28;-8.90;99.90
29281;DHT22;25048;49.590;11.026;2024-01-11T02:15:55;-9.00;99.90
29281;DHT22;25048;49.590;11.026;2024-01-11T02:18:23;-9.00;99.90
29281;DHT22;25048;49.590;11.026;2024-01-11T02:20:51;-9.00;99.90
29281;DHT22;25048;49.590;11.026;2024-01-11T02:23:21;-9.00;99.90
29281;DHT22;25048;49.590;11.026;2024-01-11T02:25:49;-9.00;99.90
29281;DHT22;25048;49.590;11.026;2024-01-11T02:28:18;-9.10;99.90
29281;DHT22;25048;49.590;11.026;2024-01-11T02:30:46;-9.10;99.90
29281;DHT22;25048;49.590;11.026;2024-01-11T02:33:14;-9.10;99.90
29281;DHT22;25048;49.590;11.026;2024-01-11T02:35:43;-9.10;99.90
29281;DHT22;25048;49.590;11.026;2024-01-11T02:38:10;-9.10;99.90
29281;DHT22;25048;49.590;11.026;2024-01-11T02:40:39;-9.10;99.90
29281;DHT22;25048;49.590;11.026;2024-01-11T02:43:10;-9.20;99.90
29281;DHT22;25048;49.590;11.026;2024-01-11T02:45:38;-9.20;99.90
29281;DHT22;25048;49.590;11.026;2024-01-11T02:48:06;-9.20;99.90
29281;DHT22;25048;49.590;11.026;2024-01-11T02:50:33;-9.20;99.90
29281;DHT22;25048;49.590;11.026;2024-01-11T02:53:01;-9.20;99.90
29281;DHT22;25048;49.590;11.026;2024-01-11T02:55:28;-9.20;99.90
29281;DHT22;25048;49.590;11.026;2024-01-11T02:57:56;-9.30;99.90
29281;DHT22;25048;49.590;11.026;2024-01-11T03:00:23;-9.30;99.90
29281;DHT22;25048;49.590;11.026;2024-01-11T03:02:51;-9.30;99.90
29281;DHT22;25048;49.590;11.026;2024-01-11T03:05:18;-9.30;99.90
29281;DHT22;25048;49.590;11.026;2024-01-11T03:07:46;-9.40;99.90
29281;DHT22;25048;49.590;11.026;2024-01-11T03:10:13;-9.40;99.90
29281;DHT22;25048;49.590;11.026;2024-01-11T03:12:41;-9.40;99.90
29281;DHT22;25048;49.590;11.026;2024-01-11T03:15:08;-9.40;99.90
29281;DHT22;25048;49.590;11.026;2024-01-11T03:17:36;-9.40;99.90
29281;DHT22;25048;49.590;11.026;2024-01-11T03:20:04;-9.40;99.90
29281;DHT22;25048;49.590;11.026;2024-01-11T03:22:32;-9.30;99.90
29281;DHT22;25048;49.590;11.026;2024-01-11T03:24:59;-9.30;99.90
29281;DHT22;25048;49.590;11.026;2024-01-11T03:27:27;-9.40;99.90
29281;DHT22;25048;49.590;11.026;2024-01-11T03:29:54;-9.40;99.90
29281;DHT22;25048;49.590;11.026;2024-01-11T03:32:22;-9.40;99.90
29281;DHT22;25048;49.590;11.026;2024-01-11T03:34:49;-9.40;99.90
29281;DHT22;25048;49.590;11.026;2024-01-11T03:37:17;-9.50;99.90
29281;DHT22;25048;49.590;11.026;2024-01-11T03:39:44;-9.50;99.90
29281;DHT22;25048;49.590;11.026;2024-01-11T03:42:12;-9.50;99.90
29281;DHT22;25048;49.590;11.026;2024-01-11T03:44:39;-9.50;99.90
29281;DHT22;25048;49.590;11.026;2024-01-11T03:47:07;-9.50;99.90
29281;DHT22;25048;49.590;11.026;2024-01-11T03:49:35;-9.60;99.90
29281;DHT22;25048;49.590;11.026;2024-01-11T03:52:02;-9.60;99.90
29281;DHT22;25048;49.590;11.026;2024-01-11T03:54:30;-9.60;99.90
29281;DHT22;25048;49.590;11.026;2024-01-11T03:56:57;-9.60;99.90
29281;DHT22;25048;49.590;11.026;2024-01-11T03:59:25;-9.60;99.90
29281;DHT22;25048;49.590;11.026;2024-01-11T04:01:52;-9.60;99.90
29281;DHT22;25048;49.590;11.026;2024-01-11T04:04:20;-9.60;99.90
29281;DHT22;25048;49.590;11.026;2024-01-11T04:06:48;-9.60;99.90
29281;DHT22;25048;49.590;11.026;2024-01-11T04:09:16;-9.60;99.90
29281;DHT22;25048;49.590;11.026;2024-01-11T04:11:43;-9.70;99.90
29281;DHT22;25048;49.590;11.026;2024-01-11T04:14:11;-9.70;99.90
29281;DHT22;25048;49.590;11.026;2024-01-11T04:16:42;-9.70;99.90
29281;DHT22;25048;49.590;11.026;2024-01-11T04:19:10;-9.70;99.90
29281;DHT22;25048;49.590;11.026;2024-01-11T04:21:38;-9.70;99.90
29281;DHT22;25048;49.590;11.026;2024-01-11T04:24:06;-9.70;99.90
29281;DHT22;25048;49.590;11.026;2024-01-11T04:26:34;-9.70;99.90
29281;DHT22;25048;49.590;11.026;2024-01-11T04:29:02;-9.70;99.90
29281;DHT22;25048;49.590;11.026;2024-01-11T04:31:29;-9.70;99.90
29281;DHT22;25048;49.590;11.026;2024-01-11T04:33:57;-9.70;99.90
29281;DHT22;25048;49.590;11.026;2024-01-11T04:36:24;-9.80;99.90
29281;DHT22;25048;49.590;11.026;2024-01-11T04:38:52;-9.80;99.90
29281;DHT22;25048;49.590;11.026;2024-01-11T04:41:19;-9.80;99.90
29281;DHT22;25048;49.590;11.026;2024-01-11T04:43:47;-9.80;99.90
29281;DHT22;25048;49.590;11.026;2024-01-11T04:46:19;-9.80;99.90
29281;DHT22;25048;49.590;11.026;2024-01-11T04:48:48;-9.80;99.90
29281;DHT22;25048;49.590;11.026;2024-01-11T04:51:17;-9.80;99.90
29281;DHT22;25048;49.590;11.026;2024-01-11T04:53:46;-9.90;99.90
29281;DHT22;25048;49.590;11.026;2024-01-11T04:56:17;-9.90;99.90
29281;DHT22;25048;49.590;11.026;2024-01-11T04:58:45;-9.80;99.90
29281;DHT22;25048;49.590;11.026;2024-01-11T05:01:17;-9.90;99.90
29281;DHT22;25048;49.590;11.026;2024-01-11T05:03:46;-9.90;99.90
29281;DHT22;25048;49.590;11.026;2024-01-11T05:06:17;-9.90;99.90
29281;DHT22;25048;49.590;11.026;2024-01-11T05:08:46;-9.90;99.90
29281;DHT22;25048;49.590;11.026;2024-01-11T05:11:18;-9.90;99.90
29281;DHT22;25048;49.590;11.026;2024-01-11T05:13:46;-10.00;99.90
29281;DHT22;25048;49.590;11.026;2024-01-11T05:16:27;-9.90;99.90
29281;DHT22;25048;49.590;11.026;2024-01-11T05:18:57;-10.00;99.90
29281;DHT22;25048;49.590;11.026;2024-01-11T05:21:25;-10.00;99.90
29281;DHT22;25048;49.590;11.026;2024-01-11T05:23:52;-10.00;99.90
29281;DHT22;25048;49.590;11.026;2024-01-11T05:26:20;-10.00;99.90
29281;DHT22;25048;49.590;11.026;2024-01-11T05:28:48;-10.10;99.90
29281;DHT22;25048;49.590;11.026;2024-01-11T05:31:16;-10.10;99.90
29281;DHT22;25048;49.590;11.026;2024-01-11T05:33:43;-10.20;99.90
29281;DHT22;25048;49.590;11.026;2024-01-11T05:36:12;-10.20;99.90
29281;DHT22;25048;49.590;11.026;2024-01-11T05:38:40;-10.20;99.90
29281;DHT22;25048;49.590;11.026;2024-01-11T05:41:07;-10.20;99.90
29281;DHT22;25048;49.590;11.026;2024-01-11T05:43:35;-10.20;99.90
29281;DHT22;25048;49.590;11.026;2024-01-11T05:46:02;-10.20;99.90
29281;DHT22;25048;49.590;11.026;2024-01-11T05:48:30;-10.20;99.90
29281;DHT22;25048;49.590;11.026;2024-01-11T05:50:57;-10.20;99.90
29281;DHT22;25048;49.590;11.026;2024-01-11T05:53:26;-10.20;99.90
29281;DHT22;25048;49.590;11.026;2024-01-11T05:55:54;-10.20;99.90
29281;DHT22;25048;49.590;11.026;2024-01-11T05:58:21;-10.20;99.90
29281;DHT22;25048;49.590;11.026;2024-01-11T06:00:49;-10.20;99.90
29281;DHT22;25048;49.590;11.026;2024-01-11T06:03:16;-10.20;99.90
29281;DHT22;25048;49.590;11.026;2024-01-11T06:05:44;-10.20;99.90
29281;DHT22;25048;49.590;11.026;2024-01-11T06:08:11;-10.20;99.90
29281;DHT22;25048;49.590;11.026;2024-01-11T06:10:40;-10.20;99.90
29281;DHT22;25048;49.590;11.026;2024-01-11T06:13:07;-10.20;99.90
29281;DHT22;25048;49.590;11.026;2024-01-11T06:15:36;-10.20;99.90
29281;DHT22;25048;49.590;11.026;2024-01-11T06:18:04;-10.20;99.90
29281;DHT22;25048;49.590;11.026;2024-01-11T06:20:31;-10.20;99.90
29281;DHT22;25048;49.590;11.026;2024-01-11T06:22:59;-10.20;99.90
29281;DHT22;25048;49.590;11.026;2024-01-11T06:25:26;-10.30;99.90
29281;DHT22;25048;49.590;11.026;2024-01-11T06:27:54;-10.20;99.90
29281;DHT22;25048;49.590;11.026;2024-01-11T06:30:22;-10.30;99.90
29281;DHT22;25048;49.590;11.026;2024-01-11T06:32:49;-10.30;99.90
29281;DHT22;25048;49.590;11.026;2024-01-11T06:35:17;-10.30;99.90
29281;DHT22;25048;49.590;11.026;2024-01-11T06:37:44;-10.40;99.90
29281;DHT22;25048;49.590;11.026;2024-01-11T06:40:12;-10.40;99.90
29281;DHT22;25048;49.590;11.026;2024-01-11T06:42:39;-10.40;99.90
29281;DHT22;25048;49.590;11.026;2024-01-11T06:45:08;-10.40;99.90
29281;DHT22;25048;49.590;11.026;2024-01-11T06:47:36;-10.40;99.90
29281;DHT22;25048;49.590;11.026;2024-01-11T06:50:03;-10.40;99.90
29281;DHT22;25048;49.590;11.026;2024-01-11T06:52:31;-10.40;99.90
29281;DHT22;25048;49.590;11.026;2024-01-11T06:54:58;-10.40;99.90
29281;DHT22;25048;49.590;11.026;2024-01-11T06:57:27;-10.30;99.90
29281;DHT22;25048;49.590;11.026;2024-01-11T06:59:55;-10.30;99.90
29281;DHT22;25048;49.590;11.026;2024-01-11T07:02:22;-10.30;99.90
29281;DHT22;25048;49.590;11.026;2024-01-11T07:04:50;-10.40;99.90
29281;DHT22;25048;49.590;11.026;2024-01-11T07:07:17;-10.40;99.90
29281;DHT22;25048;49.590;11.026;2024-01-11T07:09:45;-10.40;99.90
29281;DHT22;25048;49.590;11.026;2024-01-11T07:12:12;-10.40;99.90
29281;DHT22;25048;49.590;11.026;2024-01-11T07:14:40;-10.40;99.90
29281;DHT22;25048;49.590;11.026;2024-01-11T07:17:07;-10.40;99.90
29281;DHT22;25048;49.590;11.026;2024-01-11T07:19:35;-10.40;99.90
29281;DHT22;25048;49.590;11.026;2024-01-11T07:22:03;-10.40;99.90
29281;DHT22;25048;49.590;11.026;2024-01-11T07:24:30;-10.50;99.90
29281;DHT22;25048;49.590;11.026;2024-01-11T07:27:00;-10.50;99.90
29281;DHT22;25048;49.590;11.026;2024-01-11T07:29:27;-10.50;99.90
29281;DHT22;25048;49.590;11.026;2024-01-11T07:31:55;-10.40;99.90
29281;DHT22;25048;49.590;11.026;2024-01-11T07:34:22;-10.40;99.90
29281;DHT22;25048;49.590;11.026;2024-01-11T07:36:51;-10.40;99.90
29281;DHT22;25048;49.590;11.026;2024-01-11T07:39:19;-10.30;99.90
29281;DHT22;25048;49.590;11.026;2024-01-11T07:41:49;-10.30;99.90
29281;DHT22;25048;49.590;11.026;2024-01-11T07:44:16;-10.20;99.90
29281;DHT22;25048;49.590;11.026;2024-01-11T07:46:44;-10.10;99.90
29281;DHT22;25048;49.590;11.026;2024-01-11T07:49:11;-10.00;99.90
29281;DHT22;25048;49.590;11.026;2024-01-11T07:51:39;-9.90;99.90
29281;DHT22;25048;49.590;11.026;2024-01-11T07:54:07;-9.80;99.90
29281;DHT22;25048;49.590;11.026;2024-01-11T07:56:34;-9.70;99.90
29281;DHT22;25048;49.590;11.026;2024-01-11T07:59:02;-9.60;99.90
29281;DHT22;25048;49.590;11.026;2024-01-11T08:01:29;-9.40;99.90
29281;DHT22;25048;49.590;11.026;2024-01-11T08:03:57;-9.30;99.90
29281;DHT22;25048;49.590;11.026;2024-01-11T08:06:24;-9.20;99.90
29281;DHT22;25048;49.590;11.026;2024-01-11T08:08:52;-9.10;99.90
29281;DHT22;25048;49.590;11.026;2024-01-11T08:11:19;-9.00;99.90
29281;DHT22;25048;49.590;11.026;2024-01-11T08:13:47;-8.90;99.90
29281;DHT22;25048;49.590;11.026;2024-01-11T08:16:17;-8.80;99.90
29281;DHT22;25048;49.590;11.026;2024-01-11T08:18:45;-8.60;99.90
29281;DHT22;25048;49.590;11.026;2024-01-11T08:21:15;-8.50;99.90
29281;DHT22;25048;49.590;11.026;2024-01-11T08:23:42;-8.40;99.90
29281;DHT22;25048;49.590;11.026;2024-01-11T08:26:17;-8.30;99.90
29281;DHT22;25048;49.590;11.026;2024-01-11T08:28:45;-8.20;99.90
29281;DHT22;25048;49.590;11.026;2024-01-11T08:31:13;-8.10;99.90
29281;DHT22;25048;49.590;11.026;2024-01-11T08:33:40;-8.00;99.90
29281;DHT22;25048;49.590;11.026;2024-01-11T08:36:08;-7.80;99.90
29281;DHT22;25048;49.590;11.026;2024-01-11T08:38:36;-7.70;99.90
29281;DHT22;25048;49.590;11.026;2024-01-11T08:41:05;-7.60;99.90
29281;DHT22;25048;49.590;11.026;2024-01-11T08:43:33;-7.40;99.90
29281;DHT22;25048;49.590;11.026;2024-01-11T08:46:00;-7.30;99.90
29281;DHT22;25048;49.590;11.026;2024-01-11T08:48:28;-7.20;99.90
29281;DHT22;25048;49.590;11.026;2024-01-11T08:50:56;-7.00;99.90
29281;DHT22;25048;49.590;11.026;2024-01-11T08:53:23;-6.90;99.90
29281;DHT22;25048;49.590;11.026;2024-01-11T08:55:51;-6.70;99.90
29281;DHT22;25048;49.590;11.026;2024-01-11T08:58:19;-6.50;99.90
29281;DHT22;25048;49.590;11.026;2024-01-11T09:00:47;-6.40;99.90
29281;DHT22;25048;49.590;11.026;2024-01-11T09:03:14;-6.20;99.90
29281;DHT22;25048;49.590;11.026;2024-01-11T09:05:43;-6.10;99.90
29281;DHT22;25048;49.590;11.026;2024-01-11T09:08:10;-5.90;99.90
29281;DHT22;25048;49.590;11.026;2024-01-11T09:10:38;-5.80;99.90
29281;DHT22;25048;49.590;11.026;2024-01-11T09:13:05;-5.60;99.90
29281;DHT22;25048;49.590;11.026;2024-01-11T09:15:33;-5.50;99.90
29281;DHT22;25048;49.590;11.026;2024-01-11T09:18:01;-5.40;99.90
29281;DHT22;25048;49.590;11.026;2024-01-11T09:20:29;-5.20;99.90
29281;DHT22;25048;49.590;11.026;2024-01-11T09:22:56;-5.10;99.90
29281;DHT22;25048;49.590;11.026;2024-01-11T09:25:24;-5.00;99.90
29281;DHT22;25048;49.590;11.026;2024-01-11T09:27:51;-4.90;99.90
29281;DHT22;25048;49.590;11.026;2024-01-11T09:30:19;-4.70;99.90
29281;DHT22;25048;49.590;11.026;2024-01-11T09:32:46;-4.60;99.90
29281;DHT22;25048;49.590;11.026;2024-01-11T09:35:14;-4.50;99.90
29281;DHT22;25048;49.590;11.026;2024-01-11T09:37:42;-4.40;99.90
29281;DHT22;25048;49.590;11.026;2024-01-11T09:40:12;-4.30;99.90
29281;DHT22;25048;49.590;11.026;2024-01-11T09:42:39;-4.10;99.90
29281;DHT22;25048;49.590;11.026;2024-01-11T09:45:10;-4.00;99.90
29281;DHT22;25048;49.590;11.026;2024-01-11T09:47:39;-3.80;99.90
29281;DHT22;25048;49.590;11.026;2024-01-11T09:50:07;-3.70;99.90
29281;DHT22;25048;49.590;11.026;2024-01-11T09:52:37;-3.60;99.90
29281;DHT22;25048;49.590;11.026;2024-01-11T09:55:06;-3.50;99.90
29281;DHT22;25048;49.590;11.026;2024-01-11T09:57:35;-3.30;99.90
29281;DHT22;25048;49.590;11.026;2024-01-11T10:00:04;-3.20;99.90
29281;DHT22;25048;49.590;11.026;2024-01-11T10:02:34;-3.10;99.90
29281;DHT22;25048;49.590;11.026;2024-01-11T10:05:01;-2.90;99.90
29281;DHT22;25048;49.590;11.026;2024-01-11T10:07:30;-2.70;99.90
29281;DHT22;25048;49.590;11.026;2024-01-11T10:09:59;-2.60;99.90
29281;DHT22;25048;49.590;11.026;2024-01-11T10:12:29;-2.50;99.90
29281;DHT22;25048;49.590;11.026;2024-01-11T10:15:05;-2.40;99.90
29281;DHT22;25048;49.590;11.026;2024-01-11T10:17:35;-2.30;99.90
29281;DHT22;25048;49.590;11.026;2024-01-11T10:20:03;-2.10;99.90
29281;DHT22;25048;49.590;11.026;2024-01-11T10:22:31;-1.90;99.90
29281;DHT22;25048;49.590;11.026;2024-01-11T10:25:11;-1.70;99.90
29281;DHT22;25048;49.590;11.026;2024-01-11T10:27:41;-1.50;99.90
29281;DHT22;25048;49.590;11.026;2024-01-11T10:30:12;-1.30;99.90
29281;DHT22;25048;49.590;11.026;2024-01-11T10:32:47;-1.00;99.90
29281;DHT22;25048;49.590;11.026;2024-01-11T10:35:11;-0.60;99.90
29281;DHT22;25048;49.590;11.026;2024-01-11T10:37:39;0.00;99.90
29281;DHT22;25048;49.590;11.026;2024-01-11T10:40:08;0.50;99.90
29281;DHT22;25048;49.590;11.026;2024-01-11T10:42:45;0.70;99.90
29281;DHT22;25048;49.590;11.026;2024-01-11T10:45:17;0.90;99.90
29281;DHT22;25048;49.590;11.026;2024-01-11T10:48:37;1.10;99.90
29281;DHT22;25048;49.590;11.026;2024-01-11T10:50:25;1.20;99.90
29281;DHT22;25048;49.590;11.026;2024-01-11T10:53:02;1.30;99.90
29281;DHT22;25048;49.590;11.026;2024-01-11T10:55:34;1.40;99.90
29281;DHT22;25048;49.590;11.026;2024-01-11T10:58:00;1.70;99.90
29281;DHT22;25048;49.590;11.026;2024-01-11T11:00:29;2.00;99.90
29281;DHT22;25048;49.590;11.026;2024-01-11T11:02:59;2.20;99.90
29281;DHT22;25048;49.590;11.026;2024-01-11T11:05:30;2.30;99.90
29281;DHT22;25048;49.590;11.026;2024-01-11T11:07:59;2.50;99.90
29281;DHT22;25048;49.590;11.026;2024-01-11T11:10:28;2.60;99.90
29281;DHT22;25048;49.590;11.026;2024-01-11T11:12:57;2.60;99.90
29281;DHT22;25048;49.590;11.026;2024-01-11T11:15:29;2.90;99.90
29281;DHT22;25048;49.590;11.026;2024-01-11T11:17:57;3.10;99.90
29281;DHT22;25048;49.590;11.026;2024-01-11T11:20:25;3.10;99.90
29281;DHT22;25048;49.590;11.026;2024-01-11T11:23:04;3.00;99.90
29281;DHT22;25048;49.590;11.026;2024-01-11T11:25:32;3.00;99.90
29281;DHT22;25048;49.590;11.026;2024-01-11T11:28:01;3.00;99.90
29281;DHT22;25048;49.590;11.026;2024-01-11T11:30:31;3.10;99.90
29281;DHT22;25048;49.590;11.026;2024-01-11T11:33:10;3.30;99.90
29281;DHT22;25048;49.590;11.026;2024-01-11T11:35:38;3.60;99.90
29281;DHT22;25048;49.590;11.026;2024-01-11T11:38:06;3.80;99.90
29281;DHT22;25048;49.590;11.026;2024-01-11T11:40:38;3.80;99.90
29281;DHT22;25048;49.590;11.026;2024-01-11T11:43:10;3.70;99.90
29281;DHT22;25048;49.590;11.026;2024-01-11T11:45:38;3.60;99.90
29281;DHT22;25048;49.590;11.026;2024-01-11T11:51:00;3.20;99.90
29281;DHT22;25048;49.590;11.026;2024-01-11T11:53:21;3.00;99.90
29281;DHT22;25048;49.590;11.026;2024-01-11T11:55:48;2.70;99.90
29281;DHT22;25048;49.590;11.026;2024-01-11T11:58:17;2.80;99.90
29281;DHT22;25048;49.590;11.026;2024-01-11T12:00:46;2.80;99.90
29281;DHT22;25048;49.590;11.026;2024-01-11T12:03:14;2.70;99.90
29281;DHT22;25048;49.590;11.026;2024-01-11T12:05:43;2.70;99.90
29281;DHT22;25048;49.590;11.026;2024-01-11T12:08:10;2.60;99.90
29281;DHT22;25048;49.590;11.026;2024-01-11T12:10:40;2.60;99.90
29281;DHT22;25048;49.590;11.026;2024-01-11T12:13:07;2.60;99.90
29281;DHT22;25048;49.590;11.026;2024-01-11T12:15:34;2.60;99.90
29281;DHT22;25048;49.590;11.026;2024-01-11T12:18:02;2.50;99.90
29281;DHT22;25048;49.590;11.026;2024-01-11T12:20:30;2.30;99.90
29281;DHT22;25048;49.590;11.026;2024-01-11T12:22:58;2.30;99.90
29281;DHT22;25048;49.590;11.026;2024-01-11T12:25:26;2.20;99.90
29281;DHT22;25048;49.590;11.026;2024-01-11T12:27:54;2.20;99.90
29281;DHT22;25048;49.590;11.026;2024-01-11T12:30:26;2.10;99.90
29281;DHT22;25048;49.590;11.026;2024-01-11T12:32:54;2.20;99.90
29281;DHT22;25048;49.590;11.026;2024-01-11T12:35:23;2.10;99.90
29281;DHT22;25048;49.590;11.026;2024-01-11T12:38:02;2.20;99.90
29281;DHT22;25048;49.590;11.026;2024-01-11T12:40:37;2.10;99.90
29281;DHT22;25048;49.590;11.026;2024-01-11T12:43:07;2.20;99.90
29281;DHT22;25048;49.590;11.026;2024-01-11T12:45:35;2.20;99.90
29281;DHT22;25048;49.590;11.026;2024-01-11T12:48:03;2.30;99.90
29281;DHT22;25048;49.590;11.026;2024-01-11T12:50:32;2.30;99.90
29281;DHT22;25048;49.590;11.026;2024-01-11T12:53:08;2.40;99.90
29281;DHT22;25048;49.590;11.026;2024-01-11T12:55:36;2.40;99.90
29281;DHT22;25048;49.590;11.026;2024-01-11T12:58:05;2.40;99.90
29281;DHT22;25048;49.590;11.026;2024-01-11T13:00:33;2.40;99.90
29281;DHT22;25048;49.590;11.026;2024-01-11T13:03:00;2.40;99.90
29281;DHT22;25048;49.590;11.026;2024-01-11T13:05:28;2.50;99.90
29281;DHT22;25048;49.590;11.026;2024-01-11T13:07:56;2.40;99.90
29281;DHT22;25048;49.590;11.026;2024-01-11T13:10:24;2.50;99.90
29281;DHT22;25048;49.590;11.026;2024-01-11T13:12:53;2.50;99.90
29281;DHT22;25048;49.590;11.026;2024-01-11T13:15:21;2.50;99.90
29281;DHT22;25048;49.590;11.026;2024-01-11T13:17:50;2.50;99.90
29281;DHT22;25048;49.590;11.026;2024-01-11T13:20:17;2.60;99.90
29281;DHT22;25048;49.590;11.026;2024-01-11T13:22:45;2.60;99.90
29281;DHT22;25048;49.590;11.026;2024-01-11T13:25:12;2.60;99.90
29281;DHT22;25048;49.590;11.026;2024-01-11T13:27:40;2.60;99.90
29281;DHT22;25048;49.590;11.026;2024-01-11T13:30:08;2.60;99.90
29281;DHT22;25048;49.590;11.026;2024-01-11T13:32:35;2.70;99.90
29281;DHT22;25048;49.590;11.026;2024-01-11T13:35:03;2.80;99.90
29281;DHT22;25048;49.590;11.026;2024-01-11T13:37:31;2.90;99.90
29281;DHT22;25048;49.590;11.026;2024-01-11T13:39:59;2.90;99.90
29281;DHT22;25048;49.590;11.026;2024-01-11T13:42:26;3.00;99.90
29281;DHT22;25048;49.590;11.026;2024-01-11T13:44:55;3.10;99.90
29281;DHT22;25048;49.590;11.026;2024-01-11T13:47:22;3.20;99.90
29281;DHT22;25048;49.590;11.026;2024-01-11T13:49:50;3.40;99.90
29281;DHT22;25048;49.590;11.026;2024-01-11T13:52:18;3.60;99.90
29281;DHT22;25048;49.590;11.026;2024-01-11T13:54:45;3.80;99.90
29281;DHT22;25048;49.590;11.026;2024-01-11T13:57:13;3.90;99.90
29281;DHT22;25048;49.590;11.026;2024-01-11T13:59:40;3.80;99.90
29281;DHT22;25048;49.590;11.026;2024-01-11T14:02:08;4.00;99.90
29281;DHT22;25048;49.590;11.026;2024-01-11T14:04:36;4.10;99.90
29281;DHT22;25048;49.590;11.026;2024-01-11T14:07:03;4.20;99.90
29281;DHT22;25048;49.590;11.026;2024-01-11T14:09:31;4.30;99.90
29281;DHT22;25048;49.590;11.026;2024-01-11T14:11:58;4.30;99.90
29281;DHT22;25048;49.590;11.026;2024-01-11T14:14:26;4.40;99.90
29281;DHT22;25048;49.590;11.026;2024-01-11T14:16:53;4.50;99.90
29281;DHT22;25048;49.590;11.026;2024-01-11T14:19:21;4.60;99.90
29281;DHT22;25048;49.590;11.026;2024-01-11T14:21:48;4.60;99.90
29281;DHT22;25048;49.590;11.026;2024-01-11T14:24:17;4.70;99.90
29281;DHT22;25048;49.590;11.026;2024-01-11T14:26:44;4.70;99.90
29281;DHT22;25048;49.590;11.026;2024-01-11T14:29:12;4.70;99.90
29281;DHT22;25048;49.590;11.026;2024-01-11T14:31:39;4.60;99.90
29281;DHT22;25048;49.590;11.026;2024-01-11T14:34:07;4.60;99.90
29281;DHT22;25048;49.590;11.026;2024-01-11T14:36:34;4.60;99.90
29281;DHT22;25048;49.590;11.026;2024-01-11T14:39:02;4.60;99.90
29281;DHT22;25048;49.590;11.026;2024-01-11T14:41:34;4.50;99.90
29281;DHT22;25048;49.590;11.026;2024-01-11T14:44:01;4.30;99.90
29281;DHT22;25048;49.590;11.026;2024-01-11T14:46:30;4.20;99.90
29281;DHT22;25048;49.590;11.026;2024-01-11T14:48:57;4.00;99.90
29281;DHT22;25048;49.590;11.026;2024-01-11T14:51:26;3.80;99.90
29281;DHT22;25048;49.590;11.026;2024-01-11T14:53:56;3.70;99.90
29281;DHT22;25048;49.590;11.026;2024-01-11T14:56:23;3.60;99.90
29281;DHT22;25048;49.590;11.026;2024-01-11T14:58:51;3.30;99.90
29281;DHT22;25048;49.590;11.026;2024-01-11T15:01:18;3.10;99.90
29281;DHT22;25048;49.590;11.026;2024-01-11T15:03:46;2.80;99.90
29281;DHT22;25048;49.590;11.026;2024-01-11T15:06:13;2.60;99.90
29281;DHT22;25048;49.590;11.026;2024-01-11T15:08:41;2.30;99.90
29281;DHT22;25048;49.590;11.026;2024-01-11T15:11:09;2.00;99.90
29281;DHT22;25048;49.590;11.026;2024-01-11T15:13:36;1.80;99.90
29281;DHT22;25048;49.590;11.026;2024-01-11T15:16:04;1.60;99.90
29281;DHT22;25048;49.590;11.026;2024-01-11T15:18:32;1.30;99.90
29281;DHT22;25048;49.590;11.026;2024-01-11T15:21:00;1.20;99.90
29281;DHT22;25048;49.590;11.026;2024-01-11T15:23:27;1.00;99.90
29281;DHT22;25048;49.590;11.026;2024-01-11T15:25:55;0.90;99.90